Time;durP1;ratioP1;P1;durP2;ratioP2;P2;SDS_P1;SDS_P2;PMS_P1;PMS_P2;Temp;Humidity;BMP_temperature;BMP_pressure;BME280_temperature;BME280_humidity;BME280_pressure;Samples;Min_cycle;Max_cycle;Signal;HPM_P1;HPM_P2
2021/07/18 00:02:07;;;;;;;;;;;;;;;;;;2138344;59;1916;-67
2021/07/18 00:04:32;;;;;;;;;;;;;;;;;;2136010;59;1155;-68
2021/07/18 00:06:57;;;;;;;;;;;;;;;;;;2134919;67;1152;-66
2021/07/18 00:09:23;;;;;;;;;;;;;;;;;;2139963;67;1159;-67
2021/07/18 00:11:48;;;;;;;;;;;;;;;;;;2138676;67;1324;-67
2021/07/18 00:14:13;;;;;;;;;;;;;;;;;;2138285;67;1188;-67
2021/07/18 00:16:38;;;;;;;;;;;;;;;;;;2138619;59;1304;-68
2021/07/18 00:19:04;;;;;;;;;;;;;;;;;;2137731;67;1186;-67
2021/07/18 00:21:29;;;;;;;;;;;;;;;;;;2139119;67;1249;-67
2021/07/18 00:23:55;;;;;;;;;;;;;;;;;;2137673;59;1934;-67
2021/07/18 00:26:20;;;;;;;;;;;;;;;;;;2139159;67;1191;-67
2021/07/18 00:28:45;;;;;;;;;;;;;;;;;;2137884;67;1089;-67
2021/07/18 00:31:11;;;;;;;;;;;;;;;;;;2139019;67;1214;-67
2021/07/18 00:33:36;;;;;;;;;;;;;;;;;;2138509;67;1187;-67
2021/07/18 00:36:01;;;;;;;;;;;;;;;;;;2137905;67;1220;-68
2021/07/18 00:38:27;;;;;;;;;;;;;;;;;;2138687;67;1249;-67
2021/07/18 00:40:52;;;;;;;;;;;;;;;;;;2138506;67;1284;-67
2021/07/18 00:43:17;;;;;;;;;;;;;;;;;;2138551;67;1986;-68
2021/07/18 00:45:42;;;;;;;;;;;;;;;;;;2138525;67;1227;-67
2021/07/18 00:48:07;;;;;;;;;;;;;;;;;;2137769;67;1188;-68
2021/07/18 00:50:33;;;;;;;;;;;;;;;;;;2138696;67;1254;-67
2021/07/18 00:52:58;;;;;;;;;;;;;;;;;;2138282;67;1188;-67
2021/07/18 00:55:23;;;;;;;;;;;;;;;;;;2139094;67;1200;-67
2021/07/18 00:57:49;;;;;;;;;;;;;;;;;;2138416;67;1032;-67
2021/07/18 01:00:15;;;;;;;;;;;;;;;;;;2139080;67;1221;-67
2021/07/18 01:02:41;;;;;;;;;;;;;;;;;;2138182;59;1924;-67
2021/07/18 01:05:07;;;;;;;;;;;;;;;;;;2135620;67;1242;-68
2021/07/18 01:07:33;;;;;;;;;;;;;;;;;;2137862;67;1999;-67
2021/07/18 01:09:58;;;;;;;;;;;;;;;;;;2139485;67;1283;-67
2021/07/18 01:12:23;;;;;;;;;;;;;;;;;;2138584;59;1280;-67
2021/07/18 01:14:49;;;;;;;;;;;;;;;;;;2137614;67;1135;-67
2021/07/18 01:17:14;;;;;;;;;;;;;;;;;;2138265;59;1134;-67
2021/07/18 01:19:40;;;;;;;;;;;;;;;;;;2139527;67;1168;-67
2021/07/18 01:22:05;;;;;;;;;;;;;;;;;;2138298;67;1979;-67
2021/07/18 01:24:31;;;;;;;;;;;;;;;;;;2138203;59;1686;-68
2021/07/18 01:26:58;;;;;;;;;;;;;;;;;;2138071;67;1161;-68
2021/07/18 01:29:23;;;;;;;;;;;;;;;;;;2136888;67;1283;-68
2021/07/18 01:31:48;;;;;;;;;;;;;;;;;;2138064;67;1296;-68
2021/07/18 01:34:14;;;;;;;;;;;;;;;;;;2137217;67;1154;-68
2021/07/18 01:36:39;;;;;;;;;;;;;;;;;;2138476;67;1160;-68
2021/07/18 01:39:05;;;;;;;;;;;;;;;;;;2138278;67;1105;-67
2021/07/18 01:41:30;;;;;;;;;;;;;;;;;;2138675;67;1259;-67
2021/07/18 01:43:55;;;;;;;;;;;;;;;;;;2138082;67;1930;-68
2021/07/18 01:46:21;;;;;;;;;;;;;;;;;;2138415;67;1147;-68
2021/07/18 01:48:50;;;;;;;;;;;;;;;;;;2138553;67;1221;-67
2021/07/18 01:51:19;;;;;;;;;;;;;;;;;;2138835;67;1218;-67
2021/07/18 01:53:44;;;;;;;;;;;;;;;;;;2138517;67;1161;-67
2021/07/18 01:56:09;;;;;;;;;;;;;;;;;;2138840;67;1145;-68
2021/07/18 01:58:35;;;;;;;;;;;;;;;;;;2138281;67;1144;-67
2021/07/18 02:01:00;;;;;;;;;;;;;;;;;;2140175;53;3630;-69
2021/07/18 02:03:25;;;;;;;;;;;;;;;;;;2143459;59;1967;-70
2021/07/18 02:05:51;;;;;;;;;;;;;;;;;;2144190;59;1162;-69
2021/07/18 02:08:17;;;;;;;;;;;;;;;;;;2142568;66;1211;-68
2021/07/18 02:10:44;;;;;;;;;;;;;;;;;;2144275;59;1170;-69
2021/07/18 02:13:13;;;;;;;;;;;;;;;;;;2143237;59;1310;-70
2021/07/18 02:15:38;;;;;;;;;;;;;;;;;;2144051;66;1325;-68
2021/07/18 02:18:03;;;;;;;;;;;;;;;;;;2144151;66;1086;-69
2021/07/18 02:20:29;;;;;;;;;;;;;;;;;;2143977;66;1238;-69
2021/07/18 02:22:54;;;;;;;;;;;;;;;;;;2143080;66;1936;-70
2021/07/18 02:25:21;;;;;;;;;;;;;;;;;;2143504;66;1156;-69
2021/07/18 02:27:46;;;;;;;;;;;;;;;;;;2143283;66;1212;-67
2021/07/18 02:30:13;;;;;;;;;;;;;;;;;;2144114;66;1191;-70
2021/07/18 02:32:39;;;;;;;;;;;;;;;;;;2143900;66;1245;-70
2021/07/18 02:35:06;;;;;;;;;;;;;;;;;;2144022;59;1164;-70
2021/07/18 02:37:31;;;;;;;;;;;;;;;;;;2144116;66;1184;-68
2021/07/18 02:39:56;;;;;;;;;;;;;;;;;;2143978;67;1156;-70
2021/07/18 02:42:21;;;;;;;;;;;;;;;;;;2143926;66;1971;-69
2021/07/18 02:44:47;;;;;;;;;;;;;;;;;;2143919;67;1164;-70
2021/07/18 02:47:12;;;;;;;;;;;;;;;;;;2140502;66;1156;-68
2021/07/18 02:49:37;;;;;;;;;;;;;;;;;;2145748;66;1221;-70
2021/07/18 02:52:03;;;;;;;;;;;;;;;;;;2144644;66;1651;-69
2021/07/18 02:54:29;;;;;;;;;;;;;;;;;;2143976;67;1070;-70
2021/07/18 02:56:54;;;;;;;;;;;;;;;;;;2143833;67;1145;-68
2021/07/18 02:59:19;;;;;;;;;;;;;;;;;;2143964;67;1158;-70
2021/07/18 03:01:44;;;;;;;;;;;;;;;;;;2143776;59;1598;-69
2021/07/18 03:04:09;;;;;;;;;;;;;;;;;;2143568;67;1943;-70
2021/07/18 03:06:34;;;;;;;;;;;;;;;;;;2143869;67;1203;-69
2021/07/18 03:09:00;;;;;;;;;;;;;;;;;;2143931;67;1211;-70
2021/07/18 03:11:25;;;;;;;;;;;;;;;;;;2144111;66;1195;-69
2021/07/18 03:13:50;;;;;;;;;;;;;;;;;;2144379;59;1454;-70
2021/07/18 03:16:15;;;;;;;;;;;;;;;;;;2144586;59;1287;-69
2021/07/18 03:18:40;;;;;;;;;;;;;;;;;;2144452;66;1198;-68
2021/07/18 03:21:05;;;;;;;;;;;;;;;;;;2144398;66;1155;-69
2021/07/18 03:23:31;;;;;;;;;;;;;;;;;;2144644;58;1924;-69
2021/07/18 03:25:56;;;;;;;;;;;;;;;;;;2144246;66;1241;-69
2021/07/18 03:28:23;;;;;;;;;;;;;;;;;;2144444;66;1181;-70
2021/07/18 03:30:48;;;;;;;;;;;;;;;;;;2144488;66;1240;-70
2021/07/18 03:33:13;;;;;;;;;;;;;;;;;;2144486;66;1333;-67
2021/07/18 03:35:38;;;;;;;;;;;;;;;;;;2144514;58;1163;-70
2021/07/18 03:38:03;;;;;;;;;;;;;;;;;;2144046;66;1239;-69
2021/07/18 03:40:29;;;;;;;;;;;;;;;;;;2144544;66;1184;-69
2021/07/18 03:42:55;;;;;;;;;;;;;;;;;;2144248;66;1988;-69
2021/07/18 03:45:20;;;;;;;;;;;;;;;;;;2144501;66;1187;-69
2021/07/18 03:47:46;;;;;;;;;;;;;;;;;;2145264;66;1471;-70
2021/07/18 03:50:11;;;;;;;;;;;;;;;;;;2146679;66;1566;-70
2021/07/18 03:52:36;;;;;;;;;;;;;;;;;;2144754;66;1581;-70
2021/07/18 03:55:02;;;;;;;;;;;;;;;;;;2144108;66;1172;-70
2021/07/18 03:57:27;;;;;;;;;;;;;;;;;;2143534;66;1101;-67
2021/07/18 03:59:52;;;;;;;;;;;;;;;;;;2142904;66;1216;-69
2021/07/18 04:02:18;;;;;;;;;;;;;;;;;;2144134;59;1986;-69
2021/07/18 04:04:43;;;;;;;;;;;;;;;;;;2144258;66;1140;-69
2021/07/18 04:07:08;;;;;;;;;;;;;;;;;;2144048;66;1142;-70
2021/07/18 04:09:33;;;;;;;;;;;;;;;;;;2144634;66;1162;-70
2021/07/18 04:11:58;;;;;;;;;;;;;;;;;;2144296;66;1293;-68
2021/07/18 04:14:23;;;;;;;;;;;;;;;;;;2144319;66;1065;-70
2021/07/18 04:16:49;;;;;;;;;;;;;;;;;;2143763;59;1347;-70
2021/07/18 04:19:14;;;;;;;;;;;;;;;;;;2143979;66;1228;-70
2021/07/18 04:21:39;;;;;;;;;;;;;;;;;;2144599;66;1240;-70
2021/07/18 04:24:04;;;;;;;;;;;;;;;;;;2143683;59;1936;-69
2021/07/18 04:26:29;;;;;;;;;;;;;;;;;;2144488;66;1084;-69
2021/07/18 04:28:55;;;;;;;;;;;;;;;;;;2144280;66;1155;-68
2021/07/18 04:31:20;;;;;;;;;;;;;;;;;;2143898;66;1207;-68
2021/07/18 04:33:45;;;;;;;;;;;;;;;;;;2144531;66;1233;-67
2021/07/18 04:36:10;;;;;;;;;;;;;;;;;;2144264;66;1166;-69
2021/07/18 04:38:36;;;;;;;;;;;;;;;;;;2144479;66;1164;-70
2021/07/18 04:41:01;;;;;;;;;;;;;;;;;;2144554;66;1203;-68
2021/07/18 04:43:26;;;;;;;;;;;;;;;;;;2144238;66;1927;-69
2021/07/18 04:45:51;;;;;;;;;;;;;;;;;;2144434;66;1148;-68
2021/07/18 04:48:17;;;;;;;;;;;;;;;;;;2144488;59;1348;-68
2021/07/18 04:50:42;;;;;;;;;;;;;;;;;;2140553;66;1363;-67
2021/07/18 04:53:07;;;;;;;;;;;;;;;;;;2144204;66;1232;-70
2021/07/18 04:55:32;;;;;;;;;;;;;;;;;;2143647;66;1685;-69
2021/07/18 04:57:57;;;;;;;;;;;;;;;;;;2143732;66;1131;-69
2021/07/18 05:00:23;;;;;;;;;;;;;;;;;;2143870;66;1339;-69
2021/07/18 05:02:49;;;;;;;;;;;;;;;;;;2144348;59;2002;-67
2021/07/18 05:05:15;;;;;;;;;;;;;;;;;;2144042;66;1622;-68
2021/07/18 05:07:46;;;;;;;;;;;;;;;;;;2144120;66;1223;-69
2021/07/18 05:10:12;;;;;;;;;;;;;;;;;;2143760;66;1077;-69
2021/07/18 05:12:37;;;;;;;;;;;;;;;;;;2143867;58;1401;-69
2021/07/18 05:15:03;;;;;;;;;;;;;;;;;;2143997;59;1224;-68
2021/07/18 05:17:28;;;;;;;;;;;;;;;;;;2140722;66;1030;-69
2021/07/18 05:19:54;;;;;;;;;;;;;;;;;;2144040;66;1203;-70
2021/07/18 05:22:19;;;;;;;;;;;;;;;;;;2140474;59;1943;-68
2021/07/18 05:24:44;;;;;;;;;;;;;;;;;;2143750;66;1547;-69
2021/07/18 05:27:09;;;;;;;;;;;;;;;;;;2144274;66;1157;-70
2021/07/18 05:29:34;;;;;;;;;;;;;;;;;;2144082;66;1134;-70
2021/07/18 05:32:00;;;;;;;;;;;;;;;;;;2144511;66;1394;-69
2021/07/18 05:34:25;;;;;;;;;;;;;;;;;;2144303;66;1094;-69
2021/07/18 05:36:50;;;;;;;;;;;;;;;;;;2144020;66;1171;-69
2021/07/18 05:39:15;;;;;;;;;;;;;;;;;;2140709;66;1196;-69
2021/07/18 05:41:41;;;;;;;;;;;;;;;;;;2144292;66;1218;-68
2021/07/18 05:44:06;;;;;;;;;;;;;;;;;;2144196;66;1937;-69
2021/07/18 05:46:31;;;;;;;;;;;;;;;;;;2144662;66;1217;-70
2021/07/18 05:48:56;;;;;;;;;;;;;;;;;;2145821;66;1238;-69
2021/07/18 05:51:21;;;;;;;;;;;;;;;;;;2144866;66;1261;-70
2021/07/18 05:53:46;;;;;;;;;;;;;;;;;;2144209;66;1151;-70
2021/07/18 05:56:12;;;;;;;;;;;;;;;;;;2144250;66;1211;-70
2021/07/18 05:58:37;;;;;;;;;;;;;;;;;;2144227;66;1168;-69
2021/07/18 06:01:02;;;;;;;;;;;;;;;;;;2144229;59;1212;-69
2021/07/18 06:03:27;;;;;;;;;;;;;;;;;;2144161;66;1920;-68
2021/07/18 06:05:52;;;;;;;;;;;;;;;;;;2143930;66;1349;-69
2021/07/18 06:08:17;;;;;;;;;;;;;;;;;;2144161;66;1196;-70
2021/07/18 06:10:43;;;;;;;;;;;;;;;;;;2144267;66;1225;-70
2021/07/18 06:13:08;;;;;;;;;;;;;;;;;;2143536;66;1400;-70
2021/07/18 06:15:33;;;;;;;;;;;;;;;;;;2144132;59;1259;-70
2021/07/18 06:17:58;;;;;;;;;;;;;;;;;;2143958;66;1298;-69
2021/07/18 06:20:24;;;;;;;;;;;;;;;;;;2144190;66;1260;-71
2021/07/18 06:22:51;;;;;;;;;;;;;;;;;;2142984;59;1934;-68
2021/07/18 06:25:16;;;;;;;;;;;;;;;;;;2144309;66;1051;-70
2021/07/18 06:27:42;;;;;;;;;;;;;;;;;;2145092;66;2035;-71
2021/07/18 06:30:08;;;;;;;;;;;;;;;;;;2143656;66;1052;-69
2021/07/18 06:32:34;;;;;;;;;;;;;;;;;;2144370;66;1234;-70
2021/07/18 06:34:59;;;;;;;;;;;;;;;;;;2143825;66;1306;-70
2021/07/18 06:37:24;;;;;;;;;;;;;;;;;;2144270;66;1158;-70
2021/07/18 06:39:49;;;;;;;;;;;;;;;;;;2144278;59;1180;-69
2021/07/18 06:42:16;;;;;;;;;;;;;;;;;;2143493;67;1932;-71
2021/07/18 06:44:41;;;;;;;;;;;;;;;;;;2144180;67;1148;-70
2021/07/18 06:47:06;;;;;;;;;;;;;;;;;;2144363;66;1232;-71
2021/07/18 06:49:32;;;;;;;;;;;;;;;;;;2146856;66;1156;-71
2021/07/18 06:51:57;;;;;;;;;;;;;;;;;;2142145;66;1310;-70
2021/07/18 06:54:22;;;;;;;;;;;;;;;;;;2145035;66;1155;-68
2021/07/18 06:56:48;;;;;;;;;;;;;;;;;;2145239;66;1171;-72
2021/07/18 06:59:13;;;;;;;;;;;;;;;;;;2144861;66;1126;-68
2021/07/18 07:01:39;;;;;;;;;;;;;;;;;;2145151;58;1348;-71
2021/07/18 07:04:04;;;;;;;;;;;;;;;;;;2144507;66;1945;-71
2021/07/18 07:06:29;;;;;;;;;;;;;;;;;;2144772;66;1147;-72
2021/07/18 07:08:54;;;;;;;;;;;;;;;;;;2145299;66;1140;-68
2021/07/18 07:11:20;;;;;;;;;;;;;;;;;;2144904;66;1199;-72
2021/07/18 07:13:46;;;;;;;;;;;;;;;;;;2144968;58;1507;-71
2021/07/18 07:16:11;;;;;;;;;;;;;;;;;;2144774;66;1362;-69
2021/07/18 07:18:36;;;;;;;;;;;;;;;;;;2144973;66;1146;-70
2021/07/18 07:21:02;;;;;;;;;;;;;;;;;;2144958;66;1258;-71
2021/07/18 07:23:27;;;;;;;;;;;;;;;;;;2144898;59;1923;-70
2021/07/18 07:25:52;;;;;;;;;;;;;;;;;;2144846;66;1136;-72
2021/07/18 07:28:17;;;;;;;;;;;;;;;;;;2145078;66;1212;-70
2021/07/18 07:30:43;;;;;;;;;;;;;;;;;;2145041;66;1112;-71
2021/07/18 07:33:08;;;;;;;;;;;;;;;;;;2145165;66;1169;-72
2021/07/18 07:35:34;;;;;;;;;;;;;;;;;;2145041;66;1087;-71
2021/07/18 07:37:59;;;;;;;;;;;;;;;;;;2145071;66;1156;-72
2021/07/18 07:40:24;;;;;;;;;;;;;;;;;;2145079;66;1144;-70
2021/07/18 07:42:49;;;;;;;;;;;;;;;;;;2144813;66;1923;-70
2021/07/18 07:45:15;;;;;;;;;;;;;;;;;;2144811;66;1155;-71
2021/07/18 07:47:40;;;;;;;;;;;;;;;;;;2145632;66;1165;-70
2021/07/18 07:50:06;;;;;;;;;;;;;;;;;;2146607;66;1139;-70
2021/07/18 07:52:32;;;;;;;;;;;;;;;;;;2145185;66;1532;-72
2021/07/18 07:54:57;;;;;;;;;;;;;;;;;;2144860;66;1168;-72
2021/07/18 07:57:22;;;;;;;;;;;;;;;;;;2144923;66;1188;-72
2021/07/18 07:59:48;;;;;;;;;;;;;;;;;;2144449;66;1171;-71
2021/07/18 08:02:13;;;;;;;;;;;;;;;;;;2145962;53;3519;-68
2021/07/18 08:04:38;;;;;;;;;;;;;;;;;;2139964;59;1804;-68
2021/07/18 08:07:03;;;;;;;;;;;;;;;;;;2139654;59;1150;-68
2021/07/18 08:09:28;;;;;;;;;;;;;;;;;;2140777;59;1144;-69
2021/07/18 08:11:54;;;;;;;;;;;;;;;;;;2139518;67;1275;-68
2021/07/18 08:14:19;;;;;;;;;;;;;;;;;;2140706;67;1240;-68
2021/07/18 08:16:44;;;;;;;;;;;;;;;;;;2140838;59;1453;-68
2021/07/18 08:19:10;;;;;;;;;;;;;;;;;;2140398;59;1155;-67
2021/07/18 08:21:35;;;;;;;;;;;;;;;;;;2140731;59;1282;-68
2021/07/18 08:24:00;;;;;;;;;;;;;;;;;;2140430;59;1968;-68
2021/07/18 08:26:25;;;;;;;;;;;;;;;;;;2140548;67;1102;-69
2021/07/18 08:28:50;;;;;;;;;;;;;;;;;;2140398;67;1227;-68
2021/07/18 08:31:17;;;;;;;;;;;;;;;;;;2140484;67;1163;-68
2021/07/18 08:33:43;;;;;;;;;;;;;;;;;;2140122;59;1608;-68
2021/07/18 08:36:08;;;;;;;;;;;;;;;;;;2138290;59;1598;-69
2021/07/18 08:38:33;;;;;;;;;;;;;;;;;;2140718;67;1185;-69
2021/07/18 08:40:59;;;;;;;;;;;;;;;;;;2140511;67;1245;-67
2021/07/18 08:43:24;;;;;;;;;;;;;;;;;;2140358;67;1968;-69
2021/07/18 08:45:50;;;;;;;;;;;;;;;;;;2140508;67;1230;-69
2021/07/18 08:48:15;;;;;;;;;;;;;;;;;;2140120;67;1177;-68
2021/07/18 08:50:40;;;;;;;;;;;;;;;;;;2140424;67;1155;-70
2021/07/18 08:53:06;;;;;;;;;;;;;;;;;;2140160;67;1233;-67
2021/07/18 08:55:31;;;;;;;;;;;;;;;;;;2140708;67;1239;-68
2021/07/18 08:57:57;;;;;;;;;;;;;;;;;;2140864;67;1129;-68
2021/07/18 09:00:23;;;;;;;;;;;;;;;;;;2140323;67;1203;-70
2021/07/18 09:02:48;;;;;;;;;;;;;;;;;;2140637;59;1929;-67
2021/07/18 09:05:13;;;;;;;;;;;;;;;;;;2139452;59;1288;-68
2021/07/18 09:07:43;;;;;;;;;;;;;;;;;;2140664;67;1279;-67
2021/07/18 09:10:08;;;;;;;;;;;;;;;;;;2140626;67;1223;-68
2021/07/18 09:12:34;;;;;;;;;;;;;;;;;;2139475;59;1262;-67
2021/07/18 09:15:00;;;;;;;;;;;;;;;;;;2140565;59;1255;-68
2021/07/18 09:17:25;;;;;;;;;;;;;;;;;;2140556;67;1069;-68
2021/07/18 09:19:50;;;;;;;;;;;;;;;;;;2140645;67;1167;-68
2021/07/18 09:22:19;;;;;;;;;;;;;;;;;;2140413;59;1921;-68
2021/07/18 09:24:47;;;;;;;;;;;;;;;;;;2139046;67;1207;-67
2021/07/18 09:27:15;;;;;;;;;;;;;;;;;;2140612;67;1215;-67
2021/07/18 09:29:45;;;;;;;;;;;;;;;;;;2140357;67;1168;-67
2021/07/18 09:32:16;;;;;;;;;;;;;;;;;;2140507;67;1257;-67
2021/07/18 09:34:43;;;;;;;;;;;;;;;;;;2140279;67;1235;-68
2021/07/18 09:37:13;;;;;;;;;;;;;;;;;;2140486;59;1229;-68
2021/07/18 09:39:39;;;;;;;;;;;;;;;;;;2140468;67;1248;-67
2021/07/18 09:42:05;;;;;;;;;;;;;;;;;;2140308;67;1223;-70
2021/07/18 09:44:41;;;;;;;;;;;;;;;;;;2140624;67;2030;-68
2021/07/18 09:47:06;;;;;;;;;;;;;;;;;;2140490;67;1309;-68
2021/07/18 09:49:35;;;;;;;;;;;;;;;;;;2140628;67;1293;-68
2021/07/18 09:52:19;;;;;;;;;;;;;;;;;;2140456;67;1486;-70
2021/07/18 09:54:45;;;;;;;;;;;;;;;;;;2140430;67;1132;-68
2021/07/18 09:57:10;;;;;;;;;;;;;;;;;;2140676;67;1153;-67
2021/07/18 09:59:36;;;;;;;;;;;;;;;;;;2139365;59;1434;-67
2021/07/18 10:02:03;;;;;;;;;;;;;;;;;;2138948;59;1194;-68
2021/07/18 10:04:29;;;;;;;;;;;;;;;;;;2139439;67;1939;-67
2021/07/18 10:07:05;;;;;;;;;;;;;;;;;;2140375;67;1557;-69
2021/07/18 10:09:31;;;;;;;;;;;;;;;;;;2140444;66;1186;-68
2021/07/18 10:11:56;;;;;;;;;;;;;;;;;;2140596;59;1164;-68
2021/07/18 10:14:21;;;;;;;;;;;;;;;;;;2140362;67;1184;-68
2021/07/18 10:16:49;;;;;;;;;;;;;;;;;;2138821;59;1277;-68
2021/07/18 10:19:15;;;;;;;;;;;;;;;;;;2140020;67;1030;-67
2021/07/18 10:21:40;;;;;;;;;;;;;;;;;;2139800;67;1315;-67
2021/07/18 10:24:06;;;;;;;;;;;;;;;;;;2139983;59;1937;-68
2021/07/18 10:26:33;;;;;;;;;;;;;;;;;;2140528;66;1213;-67
2021/07/18 10:28:58;;;;;;;;;;;;;;;;;;2140197;67;1172;-67
2021/07/18 10:31:26;;;;;;;;;;;;;;;;;;2140364;67;1156;-67
2021/07/18 10:33:51;;;;;;;;;;;;;;;;;;2139999;67;1176;-67
2021/07/18 10:36:19;;;;;;;;;;;;;;;;;;2139842;67;1196;-67
2021/07/18 10:38:44;;;;;;;;;;;;;;;;;;2139097;67;1660;-67
2021/07/18 10:41:12;;;;;;;;;;;;;;;;;;2139923;67;1261;-67
2021/07/18 10:43:37;;;;;;;;;;;;;;;;;;2140139;67;1920;-67
2021/07/18 10:46:03;;;;;;;;;;;;;;;;;;2139788;67;1018;-69
2021/07/18 10:48:47;;;;;;;;;;;;;;;;;;2139705;67;1893;-68
2021/07/18 10:51:13;;;;;;;;;;;;;;;;;;2139684;59;1429;-69
2021/07/18 10:53:38;;;;;;;;;;;;;;;;;;2139787;67;1649;-68
2021/07/18 10:56:04;;;;;;;;;;;;;;;;;;2140024;67;1236;-67
2021/07/18 10:58:39;;;;;;;;;;;;;;;;;;2139313;67;1170;-68
2021/07/18 11:01:24;;;;;;;;;;;;;;;;;;2138875;67;1550;-67
2021/07/18 11:03:49;;;;;;;;;;;;;;;;;;2139094;59;2078;-69
2021/07/18 11:06:34;;;;;;;;;;;;;;;;;;2139395;67;1609;-67
2021/07/18 11:09:05;;;;;;;;;;;;;;;;;;2139445;67;1255;-66
2021/07/18 11:11:37;;;;;;;;;;;;;;;;;;2139581;59;1529;-67
2021/07/18 11:14:21;;;;;;;;;;;;;;;;;;2138347;67;1142;-68
2021/07/18 11:16:47;;;;;;;;;;;;;;;;;;2138310;67;1259;-67
2021/07/18 11:19:31;;;;;;;;;;;;;;;;;;2140110;67;1112;-68
2021/07/18 11:21:56;;;;;;;;;;;;;;;;;;2140158;67;1250;-66
2021/07/18 11:24:40;;;;;;;;;;;;;;;;;;2139303;59;2625;-67
2021/07/18 11:27:40;;;;;;;;;;;;;;;;;;2139828;67;1188;-66
2021/07/18 11:30:26;;;;;;;;;;;;;;;;;;2130742;67;1479;-67
2021/07/18 11:32:53;;;;;;;;;;;;;;;;;;2139605;59;1364;-66
2021/07/18 11:35:19;;;;;;;;;;;;;;;;;;2140132;59;1009;-66
2021/07/18 11:37:46;;;;;;;;;;;;;;;;;;2140935;67;1070;-68
2021/07/18 11:40:12;;;;;;;;;;;;;;;;;;2140501;67;1635;-68
2021/07/18 11:42:37;;;;;;;;;;;;;;;;;;2140910;67;1916;-67
2021/07/18 11:45:07;;;;;;;;;;;;;;;;;;2140653;67;1144;-68
2021/07/18 11:47:32;;;;;;;;;;;;;;;;;;2140604;67;1214;-68
2021/07/18 11:49:57;;;;;;;;;;;;;;;;;;2140812;67;1141;-68
2021/07/18 11:52:23;;;;;;;;;;;;;;;;;;2140651;67;1723;-67
2021/07/18 11:54:48;;;;;;;;;;;;;;;;;;2140861;66;1231;-69
2021/07/18 11:57:14;;;;;;;;;;;;;;;;;;2140468;67;1163;-67
2021/07/18 11:59:41;;;;;;;;;;;;;;;;;;2140733;67;1142;-67
2021/07/18 12:02:07;;;;;;;;;;;;;;;;;;2140260;59;1278;-67
2021/07/18 12:04:32;;;;;;;;;;;;;;;;;;2138874;67;1911;-67
2021/07/18 12:07:02;;;;;;;;;;;;;;;;;;2140729;66;1164;-67
2021/07/18 12:09:29;;;;;;;;;;;;;;;;;;2139923;67;1670;-68
2021/07/18 12:11:55;;;;;;;;;;;;;;;;;;2140717;59;1360;-67
2021/07/18 12:14:21;;;;;;;;;;;;;;;;;;2141064;67;1180;-66
2021/07/18 12:16:47;;;;;;;;;;;;;;;;;;2140977;59;1326;-67
2021/07/18 12:19:13;;;;;;;;;;;;;;;;;;2139347;67;1117;-69
2021/07/18 12:21:40;;;;;;;;;;;;;;;;;;2140867;67;1179;-68
2021/07/18 12:24:25;;;;;;;;;;;;;;;;;;2139089;59;1925;-68
2021/07/18 12:26:53;;;;;;;;;;;;;;;;;;2140794;67;1178;-68
2021/07/18 12:29:19;;;;;;;;;;;;;;;;;;2140689;67;1168;-69
2021/07/18 12:31:46;;;;;;;;;;;;;;;;;;2140997;67;1212;-67
2021/07/18 12:34:12;;;;;;;;;;;;;;;;;;2140493;66;1185;-69
2021/07/18 12:36:56;;;;;;;;;;;;;;;;;;2140997;67;1245;-69
2021/07/18 12:39:23;;;;;;;;;;;;;;;;;;2139488;59;1162;-69
2021/07/18 12:41:48;;;;;;;;;;;;;;;;;;2140772;67;1196;-68
2021/07/18 12:44:14;;;;;;;;;;;;;;;;;;2140323;67;1972;-69
2021/07/18 12:46:39;;;;;;;;;;;;;;;;;;2140417;59;1164;-69
2021/07/18 12:49:08;;;;;;;;;;;;;;;;;;2140203;67;1198;-66
2021/07/18 12:51:33;;;;;;;;;;;;;;;;;;2140250;67;1202;-69
2021/07/18 12:53:59;;;;;;;;;;;;;;;;;;2140401;67;1147;-68
2021/07/18 12:56:24;;;;;;;;;;;;;;;;;;2140213;67;1188;-69
2021/07/18 12:58:51;;;;;;;;;;;;;;;;;;2140539;67;1136;-68
2021/07/18 13:01:17;;;;;;;;;;;;;;;;;;2139546;59;1289;-69
2021/07/18 13:03:51;;;;;;;;;;;;;;;;;;2140304;67;1919;-68
2021/07/18 13:06:20;;;;;;;;;;;;;;;;;;2140041;67;1072;-70
2021/07/18 13:08:46;;;;;;;;;;;;;;;;;;2140197;67;1147;-67
2021/07/18 13:11:31;;;;;;;;;;;;;;;;;;2140336;67;1217;-68
2021/07/18 13:13:56;;;;;;;;;;;;;;;;;;2139873;67;1149;-68
2021/07/18 13:16:34;;;;;;;;;;;;;;;;;;2139137;59;1914;-68
2021/07/18 13:19:10;;;;;;;;;;;;;;;;;;2139482;59;1964;-68
2021/07/18 13:21:35;;;;;;;;;;;;;;;;;;2139439;59;2097;-68
2021/07/18 13:24:00;;;;;;;;;;;;;;;;;;2139942;67;1932;-66
2021/07/18 13:26:30;;;;;;;;;;;;;;;;;;2138597;59;1673;-66
2021/07/18 13:29:11;;;;;;;;;;;;;;;;;;2140456;67;1394;-67
2021/07/18 13:31:36;;;;;;;;;;;;;;;;;;2140320;67;1360;-67
2021/07/18 13:34:02;;;;;;;;;;;;;;;;;;2139951;59;1818;-65
2021/07/18 13:36:27;;;;;;;;;;;;;;;;;;2139814;59;1851;-67
2021/07/18 13:38:53;;;;;;;;;;;;;;;;;;2140084;67;1039;-68
2021/07/18 13:41:18;;;;;;;;;;;;;;;;;;2140322;67;1264;-66
2021/07/18 13:43:45;;;;;;;;;;;;;;;;;;2140264;59;1984;-67
2021/07/18 13:46:11;;;;;;;;;;;;;;;;;;2139338;59;1724;-67
2021/07/18 13:48:36;;;;;;;;;;;;;;;;;;2140376;67;1363;-67
2021/07/18 13:51:03;;;;;;;;;;;;;;;;;;2138941;59;2078;-67
2021/07/18 13:53:29;;;;;;;;;;;;;;;;;;2138451;59;1940;-68
2021/07/18 13:55:54;;;;;;;;;;;;;;;;;;2140162;67;1119;-68
2021/07/18 13:58:19;;;;;;;;;;;;;;;;;;2140255;67;1145;-68
2021/07/18 14:00:46;;;;;;;;;;;;;;;;;;2140474;67;1148;-67
2021/07/18 14:03:12;;;;;;;;;;;;;;;;;;2144469;53;3649;-70
2021/07/18 14:05:38;;;;;;;;;;;;;;;;;;2144078;59;1209;-71
2021/07/18 14:08:04;;;;;;;;;;;;;;;;;;2143163;66;1977;-69
2021/07/18 14:10:29;;;;;;;;;;;;;;;;;;2141128;59;1357;-68
2021/07/18 14:12:54;;;;;;;;;;;;;;;;;;2139945;59;1299;-70
2021/07/18 14:15:21;;;;;;;;;;;;;;;;;;2138677;59;1279;-70
2021/07/18 14:17:46;;;;;;;;;;;;;;;;;;2139510;66;1235;-68
2021/07/18 14:20:19;;;;;;;;;;;;;;;;;;2140113;59;1150;-69
2021/07/18 14:22:45;;;;;;;;;;;;;;;;;;2139927;59;1933;-70
2021/07/18 14:25:11;;;;;;;;;;;;;;;;;;2139613;67;1449;-71
2021/07/18 14:27:38;;;;;;;;;;;;;;;;;;2139845;59;2102;-71
2021/07/18 14:30:07;;;;;;;;;;;;;;;;;;2141646;66;961;-70
2021/07/18 14:32:32;;;;;;;;;;;;;;;;;;2142094;66;1262;-69
2021/07/18 14:34:57;;;;;;;;;;;;;;;;;;2142716;59;1416;-72
2021/07/18 14:37:23;;;;;;;;;;;;;;;;;;2135095;59;2574;-69
2021/07/18 14:39:48;;;;;;;;;;;;;;;;;;2137239;59;1918;-70
2021/07/18 14:42:14;;;;;;;;;;;;;;;;;;2140179;66;1390;-71
2021/07/18 14:44:39;;;;;;;;;;;;;;;;;;2140188;67;1941;-71
2021/07/18 14:47:04;;;;;;;;;;;;;;;;;;2139553;67;1120;-71
2021/07/18 14:49:29;;;;;;;;;;;;;;;;;;2137530;59;2448;-71
2021/07/18 14:51:55;;;;;;;;;;;;;;;;;;2137705;59;2063;-71
2021/07/18 14:54:21;;;;;;;;;;;;;;;;;;2138134;67;1896;-70
2021/07/18 14:56:46;;;;;;;;;;;;;;;;;;2140273;67;1200;-70
2021/07/18 14:59:11;;;;;;;;;;;;;;;;;;2139919;67;1203;-70
2021/07/18 15:01:36;;;;;;;;;;;;;;;;;;2140373;67;1361;-71
2021/07/18 15:04:02;;;;;;;;;;;;;;;;;;2143420;67;2009;-69
2021/07/18 15:06:27;;;;;;;;;;;;;;;;;;2143234;67;1393;-70
2021/07/18 15:08:52;;;;;;;;;;;;;;;;;;2143011;59;1897;-69
2021/07/18 15:11:17;;;;;;;;;;;;;;;;;;2140709;59;2001;-70
2021/07/18 15:13:43;;;;;;;;;;;;;;;;;;2141170;59;2186;-71
2021/07/18 15:16:08;;;;;;;;;;;;;;;;;;2141127;59;2039;-71
2021/07/18 15:18:33;;;;;;;;;;;;;;;;;;2143735;66;1153;-71
2021/07/18 15:20:58;;;;;;;;;;;;;;;;;;2143603;59;2045;-71
2021/07/18 15:23:23;;;;;;;;;;;;;;;;;;2142553;59;1923;-71
2021/07/18 15:25:48;;;;;;;;;;;;;;;;;;2144177;66;1235;-71
2021/07/18 15:28:14;;;;;;;;;;;;;;;;;;2144375;59;1833;-70
2021/07/18 15:30:39;;;;;;;;;;;;;;;;;;2145412;59;1289;-71
2021/07/18 15:33:04;;;;;;;;;;;;;;;;;;2142570;59;1517;-71
2021/07/18 15:35:29;;;;;;;;;;;;;;;;;;2144129;59;1684;-70
2021/07/18 15:37:55;;;;;;;;;;;;;;;;;;2143474;59;1165;-72
2021/07/18 15:40:20;;;;;;;;;;;;;;;;;;2144043;66;1093;-71
2021/07/18 15:42:45;;;;;;;;;;;;;;;;;;2144385;59;1927;-71
2021/07/18 15:45:11;;;;;;;;;;;;;;;;;;2144648;66;1321;-68
2021/07/18 15:47:37;;;;;;;;;;;;;;;;;;2146301;66;1319;-71
2021/07/18 15:50:02;;;;;;;;;;;;;;;;;;2142832;59;2460;-69
2021/07/18 15:52:27;;;;;;;;;;;;;;;;;;2139696;66;2328;-69
2021/07/18 15:54:53;;;;;;;;;;;;;;;;;;2145026;66;1166;-70
2021/07/18 15:57:18;;;;;;;;;;;;;;;;;;2143737;66;1750;-72
2021/07/18 15:59:43;;;;;;;;;;;;;;;;;;2144023;66;1262;-70
2021/07/18 16:02:08;;;;;;;;;;;;;;;;;;2143836;59;1296;-70
2021/07/18 16:04:33;;;;;;;;;;;;;;;;;;2143680;59;1921;-69
2021/07/18 16:06:59;;;;;;;;;;;;;;;;;;2144033;66;1621;-68
2021/07/18 16:09:24;;;;;;;;;;;;;;;;;;2143567;58;1220;-70
2021/07/18 16:11:49;;;;;;;;;;;;;;;;;;2144005;59;1422;-69
2021/07/18 16:14:15;;;;;;;;;;;;;;;;;;2143636;66;1161;-70
2021/07/18 16:16:40;;;;;;;;;;;;;;;;;;2144122;59;1270;-69
2021/07/18 16:19:05;;;;;;;;;;;;;;;;;;2144183;66;1046;-66
2021/07/18 16:21:32;;;;;;;;;;;;;;;;;;2143338;66;1202;-70
2021/07/18 16:23:57;;;;;;;;;;;;;;;;;;2144041;66;2103;-71
2021/07/18 16:26:22;;;;;;;;;;;;;;;;;;2144417;66;2293;-70
2021/07/18 16:28:47;;;;;;;;;;;;;;;;;;2144682;66;1297;-70
2021/07/18 16:31:13;;;;;;;;;;;;;;;;;;2143263;66;1962;-70
2021/07/18 16:33:38;;;;;;;;;;;;;;;;;;2143725;66;1272;-72
2021/07/18 16:36:03;;;;;;;;;;;;;;;;;;2144203;66;1597;-72
2021/07/18 16:38:28;;;;;;;;;;;;;;;;;;2144194;66;1359;-72
2021/07/18 16:40:54;;;;;;;;;;;;;;;;;;2143833;66;1097;-72
2021/07/18 16:43:19;;;;;;;;;;;;;;;;;;2143684;66;1971;-73
2021/07/18 16:45:45;;;;;;;;;;;;;;;;;;2143292;66;1160;-71
2021/07/18 16:48:10;;;;;;;;;;;;;;;;;;2140717;66;1462;-72
2021/07/18 16:50:38;;;;;;;;;;;;;;;;;;2144162;59;3025;-72
2021/07/18 16:53:03;;;;;;;;;;;;;;;;;;2143745;66;2625;-71
2021/07/18 16:55:28;;;;;;;;;;;;;;;;;;2143734;66;1280;-72
2021/07/18 16:57:53;;;;;;;;;;;;;;;;;;2143892;66;1192;-72